sensor_id;sensor_type;location;lat;lon;timestamp;pressure;altitude;pressure_sealevel;temperature;humidity
37610;BME280;23457;51.966;8.230;2023-02-28T00:00:37;102433.00;;;0.11;93.67
37610;BME280;23457;51.966;8.230;2023-02-28T00:03:04;102432.25;;;0.12;94.08
37610;BME280;23457;51.966;8.230;2023-02-28T00:05:31;102431.56;;;0.05;94.17
37610;BME280;23457;51.966;8.230;2023-02-28T00:07:58;102434.53;;;-0.01;94.02
37610;BME280;23457;51.966;8.230;2023-02-28T00:10:29;102432.06;;;0.00;93.90
37610;BME280;23457;51.966;8.230;2023-02-28T00:13:05;102434.25;;;-0.14;94.41
37610;BME280;23457;51.966;8.230;2023-02-28T00:15:33;102429.25;;;-0.13;94.92
37610;BME280;23457;51.966;8.230;2023-02-28T00:18:00;102430.13;;;-0.12;94.60
37610;BME280;23457;51.966;8.230;2023-02-28T00:20:27;102425.28;;;-0.19;95.64
37610;BME280;23457;51.966;8.230;2023-02-28T00:22:54;102420.69;;;-0.13;94.91
37610;BME280;23457;51.966;8.230;2023-02-28T00:25:24;102425.16;;;-0.11;95.40
37610;BME280;23457;51.966;8.230;2023-02-28T00:27:52;102421.47;;;-0.14;95.72
37610;BME280;23457;51.966;8.230;2023-02-28T00:30:22;102421.84;;;-0.10;95.23
37610;BME280;23457;51.966;8.230;2023-02-28T00:32:50;102406.50;;;-0.10;95.36
37610;BME280;23457;51.966;8.230;2023-02-28T00:35:17;102419.16;;;-0.11;95.63
37610;BME280;23457;51.966;8.230;2023-02-28T00:37:44;102420.66;;;-0.23;96.18
37610;BME280;23457;51.966;8.230;2023-02-28T00:40:11;102420.13;;;-0.29;96.92
37610;BME280;23457;51.966;8.230;2023-02-28T00:42:39;102413.09;;;-0.32;97.11
37610;BME280;23457;51.966;8.230;2023-02-28T00:45:07;102413.50;;;-0.27;96.98
37610;BME280;23457;51.966;8.230;2023-02-28T00:47:37;102409.38;;;-0.36;97.13
37610;BME280;23457;51.966;8.230;2023-02-28T00:50:05;102409.16;;;-0.28;97.15
37610;BME280;23457;51.966;8.230;2023-02-28T00:52:31;102418.56;;;-0.38;97.23
37610;BME280;23457;51.966;8.230;2023-02-28T00:54:58;102414.63;;;-0.34;98.18
37610;BME280;23457;51.966;8.230;2023-02-28T00:57:25;102412.59;;;-0.38;97.45
37610;BME280;23457;51.966;8.230;2023-02-28T00:59:52;102422.41;;;-0.32;97.70
37610;BME280;23457;51.966;8.230;2023-02-28T01:02:21;102418.56;;;-0.38;97.19
37610;BME280;23457;51.966;8.230;2023-02-28T01:04:51;102422.97;;;-0.26;96.95
37610;BME280;23457;51.966;8.230;2023-02-28T01:07:18;102426.00;;;-0.30;97.09
37610;BME280;23457;51.966;8.230;2023-02-28T01:09:45;102426.00;;;-0.30;97.04
37610;BME280;23457;51.966;8.230;2023-02-28T01:12:12;102423.44;;;-0.41;96.78
37610;BME280;23457;51.966;8.230;2023-02-28T01:14:39;102429.69;;;-0.37;96.76
37610;BME280;23457;51.966;8.230;2023-02-28T01:17:05;102436.38;;;-0.29;96.44
37610;BME280;23457;51.966;8.230;2023-02-28T01:19:33;102428.25;;;-0.44;97.21
37610;BME280;23457;51.966;8.230;2023-02-28T01:22:04;102427.72;;;-0.50;97.06
37610;BME280;23457;51.966;8.230;2023-02-28T01:24:32;102425.16;;;-0.50;97.93
37610;BME280;23457;51.966;8.230;2023-02-28T01:26:59;102420.28;;;-0.57;97.95
37610;BME280;23457;51.966;8.230;2023-02-28T01:29:26;102424.38;;;-0.59;98.00
37610;BME280;23457;51.966;8.230;2023-02-28T01:31:53;102425.41;;;-0.57;97.36
37610;BME280;23457;51.966;8.230;2023-02-28T01:34:20;102425.06;;;-0.51;97.40
37610;BME280;23457;51.966;8.230;2023-02-28T01:36:46;102429.47;;;-0.59;97.17
37610;BME280;23457;51.966;8.230;2023-02-28T01:39:13;102422.38;;;-0.53;97.21
37610;BME280;23457;51.966;8.230;2023-02-28T01:41:40;102426.78;;;-0.60;97.64
37610;BME280;23457;51.966;8.230;2023-02-28T01:47:12;102418.47;;;-0.68;97.95
37610;BME280;23457;51.966;8.230;2023-02-28T01:49:39;102420.03;;;-0.60;97.59
37610;BME280;23457;51.966;8.230;2023-02-28T01:52:06;102419.22;;;-0.69;96.83
37610;BME280;23457;51.966;8.230;2023-02-28T01:54:34;102412.88;;;-0.64;97.60
37610;BME280;23457;51.966;8.230;2023-02-28T01:57:11;102418.22;;;-0.61;97.35
37610;BME280;23457;51.966;8.230;2023-02-28T01:59:44;102419.75;;;-0.63;97.16
37610;BME280;23457;51.966;8.230;2023-02-28T02:02:22;102421.75;;;-0.79;97.17
37610;BME280;23457;51.966;8.230;2023-02-28T02:05:16;102421.47;;;-0.82;97.73
37610;BME280;23457;51.966;8.230;2023-02-28T02:07:47;102427.78;;;-0.68;97.54
37610;BME280;23457;51.966;8.230;2023-02-28T02:24:18;102422.69;;;-0.87;97.10
37610;BME280;23457;51.966;8.230;2023-02-28T02:27:13;102409.00;;;-0.98;97.48
37610;BME280;23457;51.966;8.230;2023-02-28T02:32:54;102414.47;;;-1.03;97.73
37610;BME280;23457;51.966;8.230;2023-02-28T02:38:43;102415.88;;;-0.97;97.97
37610;BME280;23457;51.966;8.230;2023-02-28T02:41:33;102416.25;;;-1.02;97.69
37610;BME280;23457;51.966;8.230;2023-02-28T02:46:40;102409.97;;;-1.06;97.42
37610;BME280;23457;51.966;8.230;2023-02-28T02:49:13;102411.41;;;-0.99;97.37
37610;BME280;23457;51.966;8.230;2023-02-28T02:51:42;102412.72;;;-0.94;97.19
37610;BME280;23457;51.966;8.230;2023-02-28T02:54:45;102419.81;;;-1.00;96.74
37610;BME280;23457;51.966;8.230;2023-02-28T02:57:07;102411.16;;;-1.02;97.21
37610;BME280;23457;51.966;8.230;2023-02-28T02:59:38;102422.59;;;-1.08;97.52
37610;BME280;23457;51.966;8.230;2023-02-28T03:02:08;102417.97;;;-1.12;97.71
37610;BME280;23457;51.966;8.230;2023-02-28T03:04:46;102423.22;;;-1.10;97.25
37610;BME280;23457;51.966;8.230;2023-02-28T03:07:14;102427.06;;;-1.24;96.83
37610;BME280;23457;51.966;8.230;2023-02-28T03:09:50;102422.72;;;-1.25;97.76
37610;BME280;23457;51.966;8.230;2023-02-28T03:12:18;102426.41;;;-1.31;97.62
37610;BME280;23457;51.966;8.230;2023-02-28T03:14:51;102424.69;;;-1.41;98.13
37610;BME280;23457;51.966;8.230;2023-02-28T03:20:05;102424.38;;;-1.44;99.02
37610;BME280;23457;51.966;8.230;2023-02-28T03:28:17;102419.22;;;-1.54;99.36
37610;BME280;23457;51.966;8.230;2023-02-28T03:33:47;102410.44;;;-1.48;98.71
37610;BME280;23457;51.966;8.230;2023-02-28T03:36:25;102416.91;;;-1.51;98.35
37610;BME280;23457;51.966;8.230;2023-02-28T03:39:04;102415.78;;;-1.55;98.46
37610;BME280;23457;51.966;8.230;2023-02-28T03:41:35;102416.09;;;-1.60;98.82
37610;BME280;23457;51.966;8.230;2023-02-28T03:44:28;102421.19;;;-1.60;99.11
37610;BME280;23457;51.966;8.230;2023-02-28T03:47:03;102421.81;;;-1.63;98.93
37610;BME280;23457;51.966;8.230;2023-02-28T03:49:36;102422.31;;;-1.67;98.75
37610;BME280;23457;51.966;8.230;2023-02-28T03:52:08;102424.22;;;-1.64;99.11
37610;BME280;23457;51.966;8.230;2023-02-28T03:54:44;102426.75;;;-1.64;98.38
37610;BME280;23457;51.966;8.230;2023-02-28T03:57:20;102425.53;;;-1.78;99.22
37610;BME280;23457;51.966;8.230;2023-02-28T03:59:56;102426.41;;;-1.77;99.58
37610;BME280;23457;51.966;8.230;2023-02-28T04:02:23;102422.53;;;-1.83;99.01
37610;BME280;23457;51.966;8.230;2023-02-28T04:04:50;102422.84;;;-1.88;99.48
37610;BME280;23457;51.966;8.230;2023-02-28T04:07:17;102425.53;;;-1.87;99.56
37610;BME280;23457;51.966;8.230;2023-02-28T04:09:44;102427.06;;;-1.89;99.36
37610;BME280;23457;51.966;8.230;2023-02-28T04:12:11;102425.00;;;-1.93;99.55
37610;BME280;23457;51.966;8.230;2023-02-28T04:14:38;102422.84;;;-1.88;99.05
37610;BME280;23457;51.966;8.230;2023-02-28T04:17:04;102429.50;;;-1.90;98.91
37610;BME280;23457;51.966;8.230;2023-02-28T04:19:31;102430.41;;;-1.98;99.39
37610;BME280;23457;51.966;8.230;2023-02-28T04:21:58;102431.00;;;-2.01;99.46
37610;BME280;23457;51.966;8.230;2023-02-28T04:24:27;102429.81;;;-1.96;99.77
37610;BME280;23457;51.966;8.230;2023-02-28T04:26:56;102429.03;;;-1.95;99.29
37610;BME280;23457;51.966;8.230;2023-02-28T04:29:26;102427.72;;;-2.00;99.41
37610;BME280;23457;51.966;8.230;2023-02-28T04:31:54;102420.66;;;-2.02;99.40
37610;BME280;23457;51.966;8.230;2023-02-28T04:34:22;102426.88;;;-2.09;99.41
37610;BME280;23457;51.966;8.230;2023-02-28T04:36:50;102426.88;;;-2.09;99.98
37610;BME280;23457;51.966;8.230;2023-02-28T04:39:37;102427.44;;;-2.03;99.58
37610;BME280;23457;51.966;8.230;2023-02-28T04:42:04;102430.13;;;-2.01;99.67
37610;BME280;23457;51.966;8.230;2023-02-28T04:44:30;102426.66;;;-2.02;99.28
37610;BME280;23457;51.966;8.230;2023-02-28T04:46:58;102429.84;;;-2.04;99.89
37610;BME280;23457;51.966;8.230;2023-02-28T04:49:25;102429.69;;;-2.06;99.48
37610;BME280;23457;51.966;8.230;2023-02-28T04:51:51;102435.56;;;-2.07;99.57
37610;BME280;23457;51.966;8.230;2023-02-28T04:54:19;102429.72;;;-2.14;99.84
37610;BME280;23457;51.966;8.230;2023-02-28T04:56:46;102431.06;;;-2.09;99.66
37610;BME280;23457;51.966;8.230;2023-02-28T04:59:15;102430.63;;;-2.14;99.61
37610;BME280;23457;51.966;8.230;2023-02-28T05:01:46;102426.31;;;-2.24;98.57
37610;BME280;23457;51.966;8.230;2023-02-28T05:04:13;102427.56;;;-2.29;100.00
37610;BME280;23457;51.966;8.230;2023-02-28T05:06:40;102431.88;;;-2.28;99.86
37610;BME280;23457;51.966;8.230;2023-02-28T05:09:07;102421.06;;;-2.25;99.96
37610;BME280;23457;51.966;8.230;2023-02-28T05:11:34;102427.66;;;-2.19;99.74
37610;BME280;23457;51.966;8.230;2023-02-28T05:14:09;102436.19;;;-2.18;99.50
37610;BME280;23457;51.966;8.230;2023-02-28T05:16:36;102431.56;;;-2.22;98.91
37610;BME280;23457;51.966;8.230;2023-02-28T05:19:03;102435.59;;;-2.24;99.00
37610;BME280;23457;51.966;8.230;2023-02-28T05:21:41;102426.38;;;-2.32;98.96
37610;BME280;23457;51.966;8.230;2023-02-28T05:24:15;102439.50;;;-2.28;99.26
37610;BME280;23457;51.966;8.230;2023-02-28T05:26:42;102442.38;;;-2.33;98.85
37610;BME280;23457;51.966;8.230;2023-02-28T05:29:09;102447.50;;;-2.33;99.56
37610;BME280;23457;51.966;8.230;2023-02-28T05:31:37;102444.94;;;-2.33;99.43
37610;BME280;23457;51.966;8.230;2023-02-28T05:34:05;102443.34;;;-2.41;98.85
37610;BME280;23457;51.966;8.230;2023-02-28T05:36:32;102445.44;;;-2.46;99.18
37610;BME280;23457;51.966;8.230;2023-02-28T05:38:59;102448.00;;;-2.55;99.17
37610;BME280;23457;51.966;8.230;2023-02-28T05:41:26;102448.59;;;-2.57;99.89
37610;BME280;23457;51.966;8.230;2023-02-28T05:43:54;102448.91;;;-2.63;99.18
37610;BME280;23457;51.966;8.230;2023-02-28T05:46:20;102447.69;;;-2.58;99.57
37610;BME280;23457;51.966;8.230;2023-02-28T05:48:48;102452.03;;;-2.57;98.96
37610;BME280;23457;51.966;8.230;2023-02-28T05:51:15;102456.34;;;-2.47;98.71
37610;BME280;23457;51.966;8.230;2023-02-28T05:53:42;102448.56;;;-2.48;98.42
37610;BME280;23457;51.966;8.230;2023-02-28T05:56:09;102447.09;;;-2.55;98.51
37610;BME280;23457;51.966;8.230;2023-02-28T05:58:36;102449.91;;;-2.52;98.48
37610;BME280;23457;51.966;8.230;2023-02-28T06:01:30;102455.66;;;-2.55;98.83
37610;BME280;23457;51.966;8.230;2023-02-28T06:04:03;102455.34;;;-2.58;98.47
37610;BME280;23457;51.966;8.230;2023-02-28T06:06:30;102454.44;;;-2.58;98.60
37610;BME280;23457;51.966;8.230;2023-02-28T06:08:57;102454.00;;;-2.63;98.85
37610;BME280;23457;51.966;8.230;2023-02-28T06:11:24;102441.59;;;-2.68;99.34
37610;BME280;23457;51.966;8.230;2023-02-28T06:13:55;102462.09;;;-2.67;98.99
37610;BME280;23457;51.966;8.230;2023-02-28T06:16:23;102454.00;;;-2.71;99.48
37610;BME280;23457;51.966;8.230;2023-02-28T06:18:51;102451.31;;;-2.73;99.48
37610;BME280;23457;51.966;8.230;2023-02-28T06:21:19;102455.22;;;-2.68;99.38
37610;BME280;23457;51.966;8.230;2023-02-28T06:23:45;102458.81;;;-2.74;98.93
37610;BME280;23457;51.966;8.230;2023-02-28T06:26:12;102454.31;;;-2.77;99.72
37610;BME280;23457;51.966;8.230;2023-02-28T06:28:39;102453.41;;;-2.77;99.70
37610;BME280;23457;51.966;8.230;2023-02-28T06:31:08;102454.91;;;-2.71;99.23
37610;BME280;23457;51.966;8.230;2023-02-28T06:33:37;102452.22;;;-2.72;99.47
37610;BME280;23457;51.966;8.230;2023-02-28T06:36:05;102458.03;;;-2.65;99.05
37610;BME280;23457;51.966;8.230;2023-02-28T06:38:32;102457.13;;;-2.65;99.11
37610;BME280;23457;51.966;8.230;2023-02-28T06:41:00;102458.34;;;-2.70;99.01
37610;BME280;23457;51.966;8.230;2023-02-28T06:43:29;102459.41;;;-2.68;99.49
37610;BME280;23457;51.966;8.230;2023-02-28T06:45:57;102464.16;;;-2.63;99.37
37610;BME280;23457;51.966;8.230;2023-02-28T06:48:26;102463.88;;;-2.66;99.39
37610;BME280;23457;51.966;8.230;2023-02-28T06:51:04;102466.59;;;-2.73;99.49
37610;BME280;23457;51.966;8.230;2023-02-28T06:53:32;102472.28;;;-2.67;100.00
37610;BME280;23457;51.966;8.230;2023-02-28T06:55:59;102464.78;;;-2.57;99.50
37610;BME280;23457;51.966;8.230;2023-02-28T06:58:26;102468.06;;;-2.58;99.12
37610;BME280;23457;51.966;8.230;2023-02-28T07:00:52;102478.22;;;-2.49;99.12
37610;BME280;23457;51.966;8.230;2023-02-28T07:03:20;102478.56;;;-2.55;99.08
37610;BME280;23457;51.966;8.230;2023-02-28T07:05:47;102474.63;;;-2.42;99.42
37610;BME280;23457;51.966;8.230;2023-02-28T07:08:14;102474.31;;;-2.37;99.04
37610;BME280;23457;51.966;8.230;2023-02-28T07:10:41;102477.59;;;-2.38;99.69
37610;BME280;23457;51.966;8.230;2023-02-28T07:13:08;102482.84;;;-2.36;99.73
37610;BME280;23457;51.966;8.230;2023-02-28T07:15:38;102492.13;;;-2.28;100.00
37610;BME280;23457;51.966;8.230;2023-02-28T07:18:09;102482.69;;;-2.29;100.00
37610;BME280;23457;51.966;8.230;2023-02-28T07:20:35;102491.16;;;-2.11;100.00
37610;BME280;23457;51.966;8.230;2023-02-28T07:23:02;102495.06;;;-2.15;99.88
37610;BME280;23457;51.966;8.230;2023-02-28T07:25:29;102501.34;;;-2.11;99.87
37610;BME280;23457;51.966;8.230;2023-02-28T07:27:56;102498.19;;;-2.09;100.00
37610;BME280;23457;51.966;8.230;2023-02-28T07:30:23;102503.25;;;-1.92;100.00
37610;BME280;23457;51.966;8.230;2023-02-28T07:32:50;102497.06;;;-1.85;100.00
37610;BME280;23457;51.966;8.230;2023-02-28T07:35:16;102497.63;;;-1.79;98.81
37610;BME280;23457;51.966;8.230;2023-02-28T07:37:43;102495.66;;;-1.73;98.18
37610;BME280;23457;51.966;8.230;2023-02-28T07:40:11;102496.78;;;-1.61;97.61
37610;BME280;23457;51.966;8.230;2023-02-28T07:42:38;102495.78;;;-1.44;96.54
37610;BME280;23457;51.966;8.230;2023-02-28T07:45:06;102499.22;;;-1.16;96.22
37610;BME280;23457;51.966;8.230;2023-02-28T07:47:33;102489.16;;;-0.96;94.87
37610;BME280;23457;51.966;8.230;2023-02-28T07:50:00;102497.81;;;-0.75;94.37
37610;BME280;23457;51.966;8.230;2023-02-28T07:52:26;102501.41;;;-0.54;91.37
37610;BME280;23457;51.966;8.230;2023-02-28T07:54:53;102492.44;;;-0.30;87.45
37610;BME280;23457;51.966;8.230;2023-02-28T07:57:20;102499.69;;;0.04;87.67
37610;BME280;23457;51.966;8.230;2023-02-28T07:59:46;102499.59;;;0.13;85.05
37610;BME280;23457;51.966;8.230;2023-02-28T08:02:14;102496.69;;;0.39;83.46
37610;BME280;23457;51.966;8.230;2023-02-28T08:04:42;102504.41;;;0.49;83.70
37610;BME280;23457;51.966;8.230;2023-02-28T08:07:09;102508.50;;;0.47;82.58
37610;BME280;23457;51.966;8.230;2023-02-28T08:09:40;102505.19;;;0.58;82.04
37610;BME280;23457;51.966;8.230;2023-02-28T08:12:07;102511.31;;;0.70;78.56
37610;BME280;23457;51.966;8.230;2023-02-28T08:14:35;102504.91;;;0.95;77.08
37610;BME280;23457;51.966;8.230;2023-02-28T08:17:02;102497.34;;;1.07;72.56
37610;BME280;23457;51.966;8.230;2023-02-28T08:19:29;102512.56;;;1.26;72.02
37610;BME280;23457;51.966;8.230;2023-02-28T08:21:55;102512.25;;;1.43;68.49
37610;BME280;23457;51.966;8.230;2023-02-28T08:24:22;102508.66;;;1.51;66.60
37610;BME280;23457;51.966;8.230;2023-02-28T08:26:49;102507.81;;;1.72;66.81
37610;BME280;23457;51.966;8.230;2023-02-28T08:29:16;102507.63;;;1.81;66.52
37610;BME280;23457;51.966;8.230;2023-02-28T08:31:43;102506.72;;;1.80;64.62
37610;BME280;23457;51.966;8.230;2023-02-28T08:34:13;102503.78;;;2.08;64.48
37610;BME280;23457;51.966;8.230;2023-02-28T08:36:40;102501.00;;;2.27;62.24
37610;BME280;23457;51.966;8.230;2023-02-28T08:39:07;102491.72;;;2.29;62.04
37610;BME280;23457;51.966;8.230;2023-02-28T08:41:33;102500.81;;;2.35;61.09
37610;BME280;23457;51.966;8.230;2023-02-28T08:44:00;102495.75;;;2.59;61.17
37610;BME280;23457;51.966;8.230;2023-02-28T08:46:27;102502.63;;;2.48;59.91
37610;BME280;23457;51.966;8.230;2023-02-28T08:48:56;102492.66;;;2.63;59.46
37610;BME280;23457;51.966;8.230;2023-02-28T08:51:27;102501.81;;;2.71;57.87
37610;BME280;23457;51.966;8.230;2023-02-28T08:53:59;102502.06;;;2.74;56.75
37610;BME280;23457;51.966;8.230;2023-02-28T08:56:27;102497.28;;;2.78;55.97
37610;BME280;23457;51.966;8.230;2023-02-28T08:58:56;102503.13;;;2.99;55.73
37610;BME280;23457;51.966;8.230;2023-02-28T09:01:27;102508.88;;;2.85;55.33
37610;BME280;23457;51.966;8.230;2023-02-28T09:03:56;102510.84;;;3.11;54.46
37610;BME280;23457;51.966;8.230;2023-02-28T09:06:25;102498.53;;;3.18;54.13
37610;BME280;23457;51.966;8.230;2023-02-28T09:08:56;102509.19;;;3.35;53.99
37610;BME280;23457;51.966;8.230;2023-02-28T09:11:25;102501.47;;;3.35;54.34
37610;BME280;23457;51.966;8.230;2023-02-28T09:13:52;102505.06;;;3.37;54.10
37610;BME280;23457;51.966;8.230;2023-02-28T09:16:19;102501.94;;;3.52;53.76
37610;BME280;23457;51.966;8.230;2023-02-28T09:18:46;102496.22;;;3.45;53.40
37610;BME280;23457;51.966;8.230;2023-02-28T09:21:15;102504.16;;;3.48;53.71
37610;BME280;23457;51.966;8.230;2023-02-28T09:23:43;102491.53;;;3.63;53.38
37610;BME280;23457;51.966;8.230;2023-02-28T09:26:19;102490.75;;;3.29;53.50
37610;BME280;23457;51.966;8.230;2023-02-28T09:28:46;102487.84;;;3.47;51.99
37610;BME280;23457;51.966;8.230;2023-02-28T09:31:19;102498.09;;;3.59;51.93
37610;BME280;23457;51.966;8.230;2023-02-28T09:33:52;102499.22;;;3.63;51.85
37610;BME280;23457;51.966;8.230;2023-02-28T09:36:20;102498.56;;;3.53;51.71
37610;BME280;23457;51.966;8.230;2023-02-28T09:38:49;102502.16;;;3.67;51.78
37610;BME280;23457;51.966;8.230;2023-02-28T09:41:23;102499.38;;;4.01;51.23
37610;BME280;23457;51.966;8.230;2023-02-28T09:43:55;102502.22;;;3.80;50.50
37610;BME280;23457;51.966;8.230;2023-02-28T09:49:16;102490.09;;;4.03;49.37
37610;BME280;23457;51.966;8.230;2023-02-28T09:52:00;102503.66;;;3.88;49.36
37610;BME280;23457;51.966;8.230;2023-02-28T09:54:29;102498.94;;;3.94;48.80
37610;BME280;23457;51.966;8.230;2023-02-28T10:05:00;102501.88;;;3.87;49.32
37610;BME280;23457;51.966;8.230;2023-02-28T10:07:50;102510.69;;;4.03;48.90
37610;BME280;23457;51.966;8.230;2023-02-28T10:15:56;102502.44;;;4.20;48.29
37610;BME280;23457;51.966;8.230;2023-02-28T10:18:30;102505.13;;;4.21;48.03
37610;BME280;23457;51.966;8.230;2023-02-28T10:21:02;102505.09;;;4.33;49.03
37610;BME280;23457;51.966;8.230;2023-02-28T10:23:34;102509.19;;;4.18;48.49
37610;BME280;23457;51.966;8.230;2023-02-28T10:26:13;102501.50;;;4.31;48.76
37610;BME280;23457;51.966;8.230;2023-02-28T10:28:42;102496.06;;;3.90;50.18
37610;BME280;23457;51.966;8.230;2023-02-28T10:31:19;102502.50;;;4.08;50.02
37610;BME280;23457;51.966;8.230;2023-02-28T10:33:48;102494.44;;;4.15;49.92
37610;BME280;23457;51.966;8.230;2023-02-28T10:36:18;102500.78;;;4.20;50.02
37610;BME280;23457;51.966;8.230;2023-02-28T10:38:46;102498.16;;;4.32;49.88
37610;BME280;23457;51.966;8.230;2023-02-28T10:41:16;102496.63;;;4.22;50.21
37610;BME280;23457;51.966;8.230;2023-02-28T10:43:44;102499.47;;;4.14;50.39
37610;BME280;23457;51.966;8.230;2023-02-28T10:46:16;102493.56;;;4.40;51.95
37610;BME280;23457;51.966;8.230;2023-02-28T10:49:11;102482.09;;;4.23;50.60
37610;BME280;23457;51.966;8.230;2023-02-28T10:51:40;102493.59;;;4.28;50.95
37610;BME280;23457;51.966;8.230;2023-02-28T10:54:16;102491.69;;;4.25;51.21
37610;BME280;23457;51.966;8.230;2023-02-28T10:56:44;102485.44;;;4.72;51.73
37610;BME280;23457;51.966;8.230;2023-02-28T11:01:42;102483.25;;;5.29;49.98
37610;BME280;23457;51.966;8.230;2023-02-28T11:07:01;102472.72;;;5.13;50.20
37610;BME280;23457;51.966;8.230;2023-02-28T11:09:29;102474.22;;;5.09;49.86
37610;BME280;23457;51.966;8.230;2023-02-28T11:11:57;102470.16;;;5.26;49.79
37610;BME280;23457;51.966;8.230;2023-02-28T11:14:26;102478.09;;;5.29;49.53
37610;BME280;23457;51.966;8.230;2023-02-28T11:16:55;102470.25;;;5.67;49.04
37610;BME280;23457;51.966;8.230;2023-02-28T11:19:30;102473.19;;;5.73;47.56
37610;BME280;23457;51.966;8.230;2023-02-28T11:22:01;102458.34;;;6.10;50.01
37610;BME280;23457;51.966;8.230;2023-02-28T11:24:41;102462.69;;;5.70;46.86
37610;BME280;23457;51.966;8.230;2023-02-28T11:27:49;102467.06;;;5.58;47.63
37610;BME280;23457;51.966;8.230;2023-02-28T11:30:28;102459.50;;;5.74;47.88
37610;BME280;23457;51.966;8.230;2023-02-28T11:32:56;102457.69;;;5.86;47.69
37610;BME280;23457;51.966;8.230;2023-02-28T11:35:24;102463.31;;;5.39;48.16
37610;BME280;23457;51.966;8.230;2023-02-28T11:37:52;102460.28;;;5.86;48.12
37610;BME280;23457;51.966;8.230;2023-02-28T11:40:28;102458.78;;;6.03;48.15
37610;BME280;23457;51.966;8.230;2023-02-28T11:43:04;102460.19;;;5.98;48.38
37610;BME280;23457;51.966;8.230;2023-02-28T11:48:32;102449.88;;;5.71;48.40
37610;BME280;23457;51.966;8.230;2023-02-28T11:53:49;102437.66;;;6.23;48.57
37610;BME280;23457;51.966;8.230;2023-02-28T11:56:33;102444.16;;;6.17;48.00
37610;BME280;23457;51.966;8.230;2023-02-28T12:07:20;102436.13;;;5.58;49.68
37610;BME280;23457;51.966;8.230;2023-02-28T12:20:40;102415.06;;;5.91;47.64
37610;BME280;23457;51.966;8.230;2023-02-28T12:23:46;102413.03;;;5.87;47.62
37610;BME280;23457;51.966;8.230;2023-02-28T12:28:54;102404.88;;;6.07;48.35
37610;BME280;23457;51.966;8.230;2023-02-28T12:31:26;102413.03;;;6.00;47.42
37610;BME280;23457;51.966;8.230;2023-02-28T12:33:59;102404.72;;;6.19;47.44
37610;BME280;23457;51.966;8.230;2023-02-28T12:36:27;102403.03;;;6.20;49.32
37610;BME280;23457;51.966;8.230;2023-02-28T12:39:05;102403.44;;;6.13;47.16
37610;BME280;23457;51.966;8.230;2023-02-28T12:41:53;102396.56;;;5.85;48.13
37610;BME280;23457;51.966;8.230;2023-02-28T12:44:26;102395.59;;;5.70;49.08
37610;BME280;23457;51.966;8.230;2023-02-28T12:46:59;102385.06;;;5.93;48.67
37610;BME280;23457;51.966;8.230;2023-02-28T12:49:38;102379.41;;;6.56;49.15
37610;BME280;23457;51.966;8.230;2023-02-28T12:52:07;102383.69;;;7.16;48.93
37610;BME280;23457;51.966;8.230;2023-02-28T13:00:33;102377.25;;;6.64;46.81
37610;BME280;23457;51.966;8.230;2023-02-28T13:10:53;102359.94;;;7.23;45.63
37610;BME280;23457;51.966;8.230;2023-02-28T13:13:28;102352.00;;;7.51;45.81
37610;BME280;23457;51.966;8.230;2023-02-28T13:18:43;102348.44;;;7.33;48.44
37610;BME280;23457;51.966;8.230;2023-02-28T13:21:28;102346.84;;;7.51;45.46
37610;BME280;23457;51.966;8.230;2023-02-28T13:23:59;102345.44;;;7.41;46.39
37610;BME280;23457;51.966;8.230;2023-02-28T13:35:34;102352.59;;;7.00;45.87
37610;BME280;23457;51.966;8.230;2023-02-28T13:47:36;102342.25;;;7.94;45.26
37610;BME280;23457;51.966;8.230;2023-02-28T13:50:36;102350.13;;;7.32;45.62
37610;BME280;23457;51.966;8.230;2023-02-28T14:01:23;102337.19;;;7.32;45.60
37610;BME280;23457;51.966;8.230;2023-02-28T14:06:59;102327.78;;;6.72;46.81
37610;BME280;23457;51.966;8.230;2023-02-28T14:09:30;102329.94;;;6.79;47.28
37610;BME280;23457;51.966;8.230;2023-02-28T14:15:17;102327.59;;;6.84;46.92
37610;BME280;23457;51.966;8.230;2023-02-28T14:17:55;102324.94;;;7.44;47.64
37610;BME280;23457;51.966;8.230;2023-02-28T14:20:25;102329.09;;;7.26;45.88
37610;BME280;23457;51.966;8.230;2023-02-28T14:23:03;102325.69;;;7.27;46.35
37610;BME280;23457;51.966;8.230;2023-02-28T14:25:43;102329.34;;;7.00;46.76
37610;BME280;23457;51.966;8.230;2023-02-28T14:31:07;102320.41;;;6.49;47.87
37610;BME280;23457;51.966;8.230;2023-02-28T14:33:57;102327.25;;;6.63;47.80
37610;BME280;23457;51.966;8.230;2023-02-28T14:36:40;102318.13;;;6.84;48.38
37610;BME280;23457;51.966;8.230;2023-02-28T14:39:13;102315.28;;;6.95;47.18
37610;BME280;23457;51.966;8.230;2023-02-28T14:41:42;102314.59;;;6.82;46.33
37610;BME280;23457;51.966;8.230;2023-02-28T14:44:24;102312.63;;;6.78;47.05
37610;BME280;23457;51.966;8.230;2023-02-28T14:46:55;102312.47;;;6.75;46.85
37610;BME280;23457;51.966;8.230;2023-02-28T14:49:29;102310.34;;;6.68;47.77
37610;BME280;23457;51.966;8.230;2023-02-28T14:52:07;102312.78;;;6.96;47.59
37610;BME280;23457;51.966;8.230;2023-02-28T14:54:39;102310.06;;;7.09;47.06
37610;BME280;23457;51.966;8.230;2023-02-28T14:57:21;102298.22;;;7.29;46.70
37610;BME280;23457;51.966;8.230;2023-02-28T14:59:57;102308.16;;;6.91;47.00
37610;BME280;23457;51.966;8.230;2023-02-28T15:02:25;102297.47;;;6.84;47.57
37610;BME280;23457;51.966;8.230;2023-02-28T15:04:54;102309.44;;;7.13;47.59
37610;BME280;23457;51.966;8.230;2023-02-28T15:07:22;102308.34;;;6.94;47.24
37610;BME280;23457;51.966;8.230;2023-02-28T15:12:40;102316.44;;;6.85;47.52
37610;BME280;23457;51.966;8.230;2023-02-28T15:15:17;102314.84;;;6.87;47.29
37610;BME280;23457;51.966;8.230;2023-02-28T15:17:49;102315.75;;;6.73;47.11
37610;BME280;23457;51.966;8.230;2023-02-28T15:20:18;102308.28;;;6.77;47.30
37610;BME280;23457;51.966;8.230;2023-02-28T15:22:47;102314.28;;;7.07;46.72
37610;BME280;23457;51.966;8.230;2023-02-28T15:25:20;102317.75;;;7.24;47.82
37610;BME280;23457;51.966;8.230;2023-02-28T15:27:53;102314.59;;;7.44;47.13
37610;BME280;23457;51.966;8.230;2023-02-28T15:30:26;102318.50;;;6.91;47.39
37610;BME280;23457;51.966;8.230;2023-02-28T15:33:17;102324.59;;;6.47;48.16
37610;BME280;23457;51.966;8.230;2023-02-28T15:35:45;102318.00;;;6.37;48.79